Spokane, Washington
Current Conditions -  °F | °C
As of 9:53 AM on Sunday 25 Jan 2015 (Local Time) from KSFF Reporting Station
Scattered Clouds Scattered Clouds  
Wind Chill: 42°   Ceiling: Unl
Heat Index: 42°   Visibility: 8mi
Dew Point: 39°   Wind: 3mph
Humidity: 89%   Direction: 240°WSW
Pressure: 30.26"   Gusts: NA
Location:  47.66°N, 117.41°W
Report Text: KSFF 251753Z 24003KT 8SM SCT018 06/04 A3026 RMK AO2 SLP256 T00560039 10056 20033 53008
Loading
Personal Weather Stations






























Interactive Weather Map New forecast layout! Learn more

10-Day Weather Forecast

Advertisements
Track Severe Weather on mobile